Time;durP1;ratioP1;P1;durP2;ratioP2;P2;SDS_P1;SDS_P2;PMS_P1;PMS_P2;Temp;Humidity;BMP_temperature;BMP_pressure;BME280_temperature;BME280_humidity;BME280_pressure;Samples;Min_cycle;Max_cycle;Signal;HPM_P1;HPM_P2
2022/09/18 00:02:15;;;;;;;3.10;1.43;;;12.40;99.90;;;;;;7372294;19;20432;-45
2022/09/18 00:04:45;;;;;;;1.20;1.10;;;12.40;99.90;;;;;;7378586;19;20376;-46
2022/09/18 00:07:14;;;;;;;2.73;1.53;;;12.30;99.90;;;;;;7368809;19;20774;-47
2022/09/18 00:09:44;;;;;;;5.43;1.50;;;12.30;99.90;;;;;;7370553;19;20417;-46
2022/09/18 00:12:16;;;;;;;4.30;1.20;;;12.30;99.90;;;;;;7374505;19;20376;-46
2022/09/18 00:14:46;;;;;;;2.57;1.27;;;12.30;99.90;;;;;;7372233;19;20392;-45
2022/09/18 00:17:15;;;;;;;5.23;1.20;;;12.40;99.90;;;;;;7376879;19;20388;-46
2022/09/18 00:19:45;;;;;;;5.43;1.30;;;12.40;99.90;;;;;;7374014;19;20376;-46
2022/09/18 00:22:15;;;;;;;1.67;1.40;;;12.30;99.90;;;;;;7375979;19;20368;-46
2022/09/18 00:24:46;;;;;;;2.07;1.37;;;12.20;99.90;;;;;;7373541;19;20379;-46
2022/09/18 00:27:18;;;;;;;2.23;1.40;;;12.30;99.90;;;;;;7372138;19;20372;-46
2022/09/18 00:29:53;;;;;;;3.80;1.50;;;12.20;99.90;;;;;;7376854;19;20379;-46
2022/09/18 00:32:22;;;;;;;2.90;1.27;;;12.20;99.90;;;;;;7373432;19;20388;-46
2022/09/18 00:34:52;;;;;;;5.33;1.47;;;12.20;99.90;;;;;;7376808;19;20372;-46
2022/09/18 00:37:21;;;;;;;4.97;1.23;;;12.20;99.90;;;;;;7375333;19;20420;-46
2022/09/18 00:39:50;;;;;;;3.00;1.50;;;12.30;99.90;;;;;;7367253;19;20417;-46
2022/09/18 00:42:23;;;;;;;5.00;1.80;;;12.30;99.90;;;;;;7376186;19;20414;-46
2022/09/18 00:44:52;;;;;;;3.67;1.80;;;12.30;99.90;;;;;;7374683;19;20383;-46
2022/09/18 00:47:28;;;;;;;2.40;1.20;;;12.30;99.90;;;;;;7374014;19;20891;-46
2022/09/18 00:50:04;;;;;;;1.50;1.17;;;12.40;99.90;;;;;;7378430;19;20376;-48
2022/09/18 00:52:41;;;;;;;3.90;1.37;;;12.40;99.90;;;;;;7376021;19;20415;-48
2022/09/18 00:55:13;;;;;;;4.40;1.40;;;12.30;99.90;;;;;;7376446;19;20407;-45
2022/09/18 00:57:49;;;;;;;4.47;1.30;;;12.30;99.90;;;;;;7377720;19;20376;-45
2022/09/18 01:00:18;;;;;;;2.20;1.70;;;12.30;99.90;;;;;;7372540;19;20400;-45
2022/09/18 01:02:49;;;;;;;1.13;1.00;;;12.30;99.90;;;;;;7370291;19;20368;-47
2022/09/18 01:05:29;;;;;;;4.13;1.40;;;12.50;99.90;;;;;;7377934;19;20383;-48
2022/09/18 01:08:16;;;;;;;1.80;1.17;;;12.50;99.90;;;;;;7374178;19;20387;-45
2022/09/18 01:11:00;;;;;;;3.60;1.40;;;12.50;99.90;;;;;;7375154;19;20382;-47
2022/09/18 01:13:42;;;;;;;6.23;2.63;;;12.40;99.90;;;;;;7374810;19;20404;-45
2022/09/18 01:16:23;;;;;;;2.70;1.47;;;12.30;99.90;;;;;;7372931;19;20376;-45
2022/09/18 01:19:02;;;;;;;6.13;1.60;;;12.30;99.90;;;;;;7375071;19;20929;-47
2022/09/18 01:21:36;;;;;;;1.67;1.30;;;12.30;99.90;;;;;;7372153;19;20387;-48
2022/09/18 01:24:40;;;;;;;3.17;1.53;;;12.20;99.90;;;;;;7372365;19;20387;-45
2022/09/18 01:27:18;;;;;;;4.00;1.30;;;12.30;99.90;;;;;;7383260;19;20424;-46
2022/09/18 01:29:56;;;;;;;4.03;1.30;;;12.20;99.90;;;;;;7385068;19;20363;-45
2022/09/18 01:32:31;;;;;;;3.63;1.20;;;12.10;99.90;;;;;;7383702;19;20921;-48
2022/09/18 01:35:08;;;;;;;3.73;1.20;;;12.10;99.90;;;;;;7383135;19;21651;-45
2022/09/18 01:37:43;;;;;;;2.20;1.00;;;12.10;98.60;;;;;;7380927;19;20380;-45
2022/09/18 01:40:18;;;;;;;2.90;0.97;;;12.10;98.20;;;;;;7382966;19;20406;-47
2022/09/18 01:42:51;;;;;;;2.57;1.10;;;12.10;98.90;;;;;;7382898;19;20376;-45
2022/09/18 01:45:26;;;;;;;1.13;0.70;;;12.10;98.30;;;;;;7380171;19;20406;-45
2022/09/18 01:48:00;;;;;;;3.70;1.10;;;12.10;98.50;;;;;;7383909;19;20415;-47
2022/09/18 01:50:36;;;;;;;3.77;1.13;;;12.20;97.90;;;;;;7386694;19;20379;-47
2022/09/18 01:53:10;;;;;;;2.97;0.97;;;12.10;97.40;;;;;;7384007;19;20777;-48
2022/09/18 01:55:42;;;;;;;4.40;1.27;;;12.10;98.90;;;;;;7380078;19;21493;-45
2022/09/18 01:58:16;;;;;;;2.60;1.10;;;12.10;99.00;;;;;;7377690;19;20468;-47
2022/09/18 02:00:52;;;;;;;6.60;1.37;;;12.00;99.90;;;;;;7378455;19;20420;-48
2022/09/18 02:03:25;;;;;;;1.90;0.93;;;12.00;99.90;;;;;;7379966;19;20368;-48
2022/09/18 02:06:03;;;;;;;5.67;2.30;;;12.10;99.90;;;;;;7382316;19;21429;-48
2022/09/18 02:08:39;;;;;;;3.57;1.30;;;12.20;99.90;;;;;;7384682;19;20395;-48
2022/09/18 02:11:12;;;;;;;2.60;1.27;;;12.20;99.90;;;;;;7380862;19;20905;-46
2022/09/18 02:13:45;;;;;;;5.53;1.47;;;12.20;99.90;;;;;;7378134;19;20376;-46
2022/09/18 02:16:22;;;;;;;4.90;1.40;;;12.20;99.90;;;;;;7377205;19;20376;-45
2022/09/18 02:18:54;;;;;;;4.17;1.53;;;12.30;99.90;;;;;;7377057;19;21211;-46
2022/09/18 02:21:28;;;;;;;5.10;1.23;;;12.30;99.90;;;;;;7383117;19;20380;-46
2022/09/18 02:24:03;;;;;;;1.53;0.97;;;12.30;99.90;;;;;;7381873;19;20409;-46
2022/09/18 02:26:37;;;;;;;1.50;1.10;;;12.20;99.90;;;;;;7382347;19;20441;-46
2022/09/18 02:29:08;;;;;;;2.27;1.03;;;12.10;99.90;;;;;;7380815;19;20416;-46
2022/09/18 02:31:42;;;;;;;4.13;0.93;;;12.00;99.90;;;;;;7375388;19;20383;-46
2022/09/18 02:34:14;;;;;;;2.60;1.07;;;12.00;99.90;;;;;;7377159;19;20388;-46
2022/09/18 02:37:05;;;;;;;3.03;0.93;;;12.00;99.90;;;;;;7375595;19;20746;-46
2022/09/18 02:39:51;;;;;;;3.93;1.87;;;12.10;99.90;;;;;;7376227;19;20404;-46
2022/09/18 02:42:34;;;;;;;1.47;0.97;;;12.10;99.90;;;;;;7381123;19;20380;-47
2022/09/18 02:45:12;;;;;;;3.50;1.27;;;12.20;99.90;;;;;;7380653;19;20380;-46
2022/09/18 02:48:01;;;;;;;4.43;1.30;;;12.20;99.90;;;;;;7379274;19;21092;-47
2022/09/18 02:50:39;;;;;;;1.50;1.10;;;12.20;99.90;;;;;;7381279;19;20384;-46
2022/09/18 02:53:15;;;;;;;1.23;0.83;;;12.20;99.90;;;;;;7379951;19;20372;-47
2022/09/18 02:55:48;;;;;;;1.03;0.90;;;12.20;99.90;;;;;;7377970;19;20947;-47
2022/09/18 02:58:22;;;;;;;3.20;0.83;;;12.20;99.90;;;;;;7376408;19;20389;-47
2022/09/18 03:00:58;;;;;;;1.10;1.00;;;12.20;99.90;;;;;;7373419;19;20448;-46
2022/09/18 03:03:33;;;;;;;1.27;0.90;;;12.20;99.90;;;;;;7378643;19;20379;-46
2022/09/18 03:06:08;;;;;;;2.07;1.00;;;12.20;99.90;;;;;;7382027;19;21770;-46
2022/09/18 03:08:39;;;;;;;2.40;0.90;;;12.10;99.90;;;;;;7381596;19;20384;-46
2022/09/18 03:11:09;;;;;;;4.87;1.40;;;12.10;99.90;;;;;;7379817;19;20766;-45
2022/09/18 03:13:38;;;;;;;2.90;1.00;;;12.20;99.90;;;;;;7379264;19;20918;-46
2022/09/18 03:16:08;;;;;;;2.33;1.13;;;12.10;99.90;;;;;;7379256;19;20492;-46
2022/09/18 03:18:40;;;;;;;1.73;0.83;;;12.10;99.90;;;;;;7376915;19;21417;-45
2022/09/18 03:21:09;;;;;;;2.83;1.50;;;12.20;99.90;;;;;;7378562;19;20369;-45
2022/09/18 03:23:38;;;;;;;1.37;1.27;;;12.10;99.90;;;;;;7382209;19;20372;-49
2022/09/18 03:26:18;;;;;;;1.53;1.20;;;12.20;99.90;;;;;;7376314;19;20825;-47
2022/09/18 03:28:48;;;;;;;2.20;0.77;;;12.20;99.90;;;;;;7379914;19;20376;-46
2022/09/18 03:31:19;;;;;;;8.57;1.20;;;12.20;99.90;;;;;;7376290;19;22058;-46
2022/09/18 03:33:52;;;;;;;1.30;0.70;;;12.10;99.90;;;;;;7379835;19;23622;-48
2022/09/18 03:36:22;;;;;;;2.97;0.97;;;12.00;99.90;;;;;;7380064;19;20419;-47
2022/09/18 03:38:53;;;;;;;2.20;1.00;;;12.00;99.90;;;;;;7379590;19;20389;-47
2022/09/18 03:41:23;;;;;;;2.60;1.03;;;12.00;99.90;;;;;;7379859;19;20740;-48
2022/09/18 03:43:52;;;;;;;1.93;1.20;;;12.10;99.90;;;;;;7376167;19;20364;-47
2022/09/18 03:46:23;;;;;;;1.20;0.80;;;12.00;99.90;;;;;;7376742;19;20804;-47
2022/09/18 03:48:59;;;;;;;4.40;1.13;;;12.00;99.90;;;;;;7375689;19;21017;-47
2022/09/18 03:51:31;;;;;;;4.17;0.80;;;12.10;99.90;;;;;;7378045;19;20364;-47
2022/09/18 03:54:01;;;;;;;1.50;1.40;;;12.10;99.90;;;;;;7377923;19;20363;-47
2022/09/18 03:56:57;;;;;;;3.23;1.20;;;12.10;99.90;;;;;;7375078;19;20426;-47
2022/09/18 03:59:47;;;;;;;2.93;0.90;;;12.00;99.90;;;;;;7377086;19;20411;-47
2022/09/18 04:02:19;;;;;;;2.10;1.00;;;12.10;99.90;;;;;;7369453;19;20432;-47
2022/09/18 04:05:11;;;;;;;1.77;1.10;;;12.10;99.90;;;;;;7379540;19;20384;-48
2022/09/18 04:08:09;;;;;;;1.77;0.90;;;12.20;99.90;;;;;;7375199;19;20750;-46
2022/09/18 04:10:56;;;;;;;4.27;1.20;;;12.10;99.90;;;;;;7376794;19;20841;-47
2022/09/18 04:13:26;;;;;;;1.57;1.00;;;12.20;99.90;;;;;;7374989;19;20372;-48
2022/09/18 04:16:02;;;;;;;1.93;0.90;;;12.20;99.90;;;;;;7373551;19;20388;-47
2022/09/18 04:18:31;;;;;;;2.53;1.03;;;12.30;99.90;;;;;;7373569;19;20906;-47
2022/09/18 04:21:04;;;;;;;1.13;1.03;;;12.30;99.90;;;;;;7381010;19;20372;-47
2022/09/18 04:23:34;;;;;;;2.87;1.30;;;12.30;99.90;;;;;;7377873;19;20402;-47
2022/09/18 04:26:08;;;;;;;1.37;0.97;;;12.20;99.90;;;;;;7374760;19;20380;-47
2022/09/18 04:28:38;;;;;;;2.00;0.97;;;12.10;99.90;;;;;;7374896;19;20446;-47
2022/09/18 04:31:09;;;;;;;8.87;2.33;;;12.00;99.90;;;;;;7374889;19;20401;-47
2022/09/18 04:33:39;;;;;;;2.63;0.97;;;12.10;99.90;;;;;;7374556;19;20380;-47
2022/09/18 04:36:14;;;;;;;1.30;1.20;;;12.10;99.90;;;;;;7378710;19;20945;-47
2022/09/18 04:38:43;;;;;;;2.17;0.90;;;12.10;99.90;;;;;;7375147;19;20380;-46
2022/09/18 04:41:13;;;;;;;2.03;1.20;;;12.10;99.90;;;;;;7374628;19;20361;-46
2022/09/18 04:43:48;;;;;;;3.90;1.07;;;12.10;99.90;;;;;;7377603;19;20364;-46
2022/09/18 04:46:18;;;;;;;1.30;1.20;;;12.10;99.90;;;;;;7377673;19;20488;-46
2022/09/18 04:48:50;;;;;;;1.63;1.30;;;12.20;99.90;;;;;;7369390;19;20380;-46
2022/09/18 04:51:26;;;;;;;2.00;1.07;;;12.20;99.90;;;;;;7377244;19;20451;-46
2022/09/18 04:53:56;;;;;;;4.77;1.10;;;12.20;99.90;;;;;;7379487;19;20914;-45
2022/09/18 04:56:26;;;;;;;1.70;1.20;;;12.10;99.90;;;;;;7377209;19;20368;-46
2022/09/18 04:58:56;;;;;;;2.10;1.17;;;12.00;99.90;;;;;;7370042;19;20376;-46
2022/09/18 05:01:26;;;;;;;2.27;1.00;;;12.00;99.90;;;;;;7377544;19;20791;-45
2022/09/18 05:03:57;;;;;;;0.93;0.80;;;12.10;99.90;;;;;;7383625;19;20746;-46
2022/09/18 05:06:38;;;;;;;2.27;1.00;;;12.10;99.90;;;;;;7383434;19;20736;-46
2022/09/18 05:09:07;;;;;;;2.13;0.93;;;12.00;99.90;;;;;;7384822;19;20375;-46
2022/09/18 05:11:37;;;;;;;2.07;0.80;;;12.00;99.90;;;;;;7383466;19;20382;-46
2022/09/18 05:14:09;;;;;;;1.20;1.00;;;12.10;99.90;;;;;;7382154;19;20395;-47
2022/09/18 05:16:39;;;;;;;1.20;1.10;;;12.10;99.90;;;;;;7380208;19;20380;-47
2022/09/18 05:19:30;;;;;;;3.53;1.20;;;12.20;99.90;;;;;;7377994;19;20408;-46
2022/09/18 05:22:10;;;;;;;0.87;0.80;;;12.20;99.90;;;;;;7381681;19;20383;-46
2022/09/18 05:24:43;;;;;;;2.50;0.93;;;12.30;99.90;;;;;;7385426;19;20372;-46
2022/09/18 05:27:15;;;;;;;6.00;1.23;;;12.30;99.90;;;;;;7385792;19;20364;-46
2022/09/18 05:29:45;;;;;;;2.43;1.77;;;12.30;99.90;;;;;;7378344;19;20909;-46
2022/09/18 05:32:19;;;;;;;1.20;1.10;;;12.30;99.90;;;;;;7370245;19;20389;-46
2022/09/18 05:34:50;;;;;;;4.50;1.07;;;12.30;99.90;;;;;;7383628;19;20380;-46
2022/09/18 05:37:25;;;;;;;2.10;1.23;;;12.40;99.90;;;;;;7380105;19;20364;-48
2022/09/18 05:39:58;;;;;;;2.43;1.03;;;12.40;99.90;;;;;;7375739;19;20370;-46
2022/09/18 05:42:27;;;;;;;1.37;1.23;;;12.50;99.90;;;;;;7382186;19;20391;-46
2022/09/18 05:44:56;;;;;;;2.10;1.60;;;12.40;99.90;;;;;;7383109;19;20724;-46
2022/09/18 05:47:31;;;;;;;2.47;1.80;;;12.40;99.90;;;;;;7381027;19;20380;-46
2022/09/18 05:50:02;;;;;;;2.47;1.67;;;12.20;99.90;;;;;;7384088;19;20383;-45
2022/09/18 05:52:38;;;;;;;1.80;1.70;;;12.20;99.90;;;;;;7381492;19;20380;-44
2022/09/18 05:55:10;;;;;;;4.17;2.00;;;12.10;99.90;;;;;;7379034;19;20391;-48
2022/09/18 05:57:43;;;;;;;2.43;1.70;;;12.20;99.90;;;;;;7378496;19;20372;-47
2022/09/18 06:00:15;;;;;;;2.83;1.63;;;12.10;99.90;;;;;;7382138;19;20368;-45
2022/09/18 06:02:55;;;;;;;3.23;2.63;;;12.30;99.90;;;;;;7384950;19;20760;-47
2022/09/18 06:05:26;;;;;;;3.07;1.80;;;12.40;99.90;;;;;;7381737;19;21008;-46
2022/09/18 06:07:59;;;;;;;2.63;1.30;;;12.40;99.90;;;;;;7382145;19;20385;-48
2022/09/18 06:10:29;;;;;;;2.07;1.40;;;12.40;99.90;;;;;;7379142;19;20367;-48
2022/09/18 06:13:03;;;;;;;1.20;1.10;;;12.30;99.90;;;;;;7374826;19;21020;-45
2022/09/18 06:15:33;;;;;;;1.27;1.10;;;12.40;99.90;;;;;;7377306;19;20384;-46
2022/09/18 06:18:03;;;;;;;1.53;1.43;;;12.40;99.90;;;;;;7377016;19;20368;-47
2022/09/18 06:20:35;;;;;;;2.00;1.40;;;12.40;99.90;;;;;;7376222;19;20761;-47
2022/09/18 06:23:08;;;;;;;3.90;1.20;;;12.40;99.90;;;;;;7376309;19;20463;-45
2022/09/18 06:25:48;;;;;;;3.60;1.30;;;12.40;99.90;;;;;;7380155;19;20399;-47
2022/09/18 06:28:19;;;;;;;2.50;1.23;;;12.40;99.90;;;;;;7380132;19;20372;-48
2022/09/18 06:30:48;;;;;;;6.10;1.40;;;12.40;99.90;;;;;;7378039;19;20380;-48
2022/09/18 06:33:18;;;;;;;2.27;1.67;;;12.40;99.90;;;;;;7379512;19;20387;-46
2022/09/18 06:35:50;;;;;;;1.30;1.20;;;12.40;99.90;;;;;;7376613;19;20820;-48
2022/09/18 06:38:31;;;;;;;4.57;1.27;;;12.40;99.90;;;;;;7378364;19;20384;-47
2022/09/18 06:41:00;;;;;;;1.30;1.20;;;12.40;99.90;;;;;;7376772;19;20736;-45
2022/09/18 06:43:44;;;;;;;3.40;1.23;;;12.40;99.90;;;;;;7380844;19;20384;-45
2022/09/18 06:46:34;;;;;;;4.77;1.60;;;12.40;99.90;;;;;;7383038;19;20455;-48
2022/09/18 06:49:16;;;;;;;2.23;1.57;;;12.50;99.90;;;;;;7383962;19;20372;-47
2022/09/18 06:51:48;;;;;;;3.57;1.20;;;12.50;99.90;;;;;;7383081;19;21061;-48
2022/09/18 06:54:21;;;;;;;1.30;1.20;;;12.50;99.90;;;;;;7378498;19;20901;-47
2022/09/18 06:56:51;;;;;;;5.17;1.70;;;12.60;99.90;;;;;;7376780;19;20372;-47
2022/09/18 06:59:22;;;;;;;1.83;1.30;;;12.60;99.90;;;;;;7372604;19;20925;-48
2022/09/18 07:01:54;;;;;;;2.47;1.27;;;12.60;99.90;;;;;;7372595;19;20431;-45
2022/09/18 07:04:45;;;;;;;1.50;1.07;;;12.60;99.90;;;;;;7377256;19;20414;-45
2022/09/18 07:07:15;;;;;;;1.70;1.57;;;12.60;99.90;;;;;;7379879;19;20376;-45
2022/09/18 07:09:49;;;;;;;3.07;1.40;;;12.60;99.90;;;;;;7366630;19;20455;-47
2022/09/18 07:12:33;;;;;;;2.53;1.37;;;12.80;99.90;;;;;;7376851;19;20364;-46
2022/09/18 07:15:06;;;;;;;2.70;1.93;;;12.90;99.90;;;;;;7380776;19;20376;-46
2022/09/18 07:17:35;;;;;;;2.83;2.40;;;13.00;99.90;;;;;;7376714;19;20379;-48
2022/09/18 07:20:05;;;;;;;3.33;1.90;;;12.90;99.90;;;;;;7376863;19;20787;-46
2022/09/18 07:22:44;;;;;;;1.73;1.63;;;12.90;99.90;;;;;;7381649;19;20380;-46
2022/09/18 07:25:16;;;;;;;1.70;1.60;;;12.90;99.90;;;;;;7379946;19;20368;-49
2022/09/18 07:27:46;;;;;;;2.63;1.90;;;12.90;99.90;;;;;;7378500;19;20379;-48
2022/09/18 07:30:20;;;;;;;5.03;1.60;;;12.90;99.90;;;;;;7377194;19;20910;-46
2022/09/18 07:32:50;;;;;;;3.17;1.33;;;12.90;99.90;;;;;;7378943;19;20964;-46
2022/09/18 07:35:25;;;;;;;2.63;1.43;;;13.00;99.90;;;;;;7376243;19;20921;-46
2022/09/18 07:37:59;;;;;;;2.50;1.50;;;13.10;99.90;;;;;;7372918;19;20364;-45
2022/09/18 07:40:44;;;;;;;2.93;1.57;;;13.20;99.90;;;;;;7378371;19;20383;-46
2022/09/18 07:43:22;;;;;;;4.27;1.57;;;13.20;99.90;;;;;;7376157;19;20906;-46
2022/09/18 07:45:55;;;;;;;5.17;1.53;;;13.30;99.90;;;;;;7376036;19;20867;-47
2022/09/18 07:48:26;;;;;;;1.43;1.33;;;13.30;99.90;;;;;;7381436;19;20397;-47
2022/09/18 07:51:00;;;;;;;1.40;1.07;;;13.20;99.90;;;;;;7378326;19;20930;-47
2022/09/18 07:53:30;;;;;;;4.47;1.17;;;13.20;99.90;;;;;;7379320;19;20391;-47
2022/09/18 07:56:09;;;;;;;2.70;1.20;;;13.30;99.90;;;;;;7378550;19;20749;-47
2022/09/18 07:58:39;;;;;;;5.00;1.50;;;13.30;99.90;;;;;;7376376;19;20395;-47
2022/09/18 08:01:18;;;;;;;2.30;1.40;;;13.40;99.90;;;;;;7376272;19;20562;-47
2022/09/18 08:03:52;;;;;;;3.60;1.13;;;13.30;99.90;;;;;;7378823;19;20376;-47
2022/09/18 08:06:22;;;;;;;1.47;1.00;;;13.30;99.90;;;;;;7380264;19;20731;-47
2022/09/18 08:09:05;;;;;;;4.07;1.23;;;13.20;99.90;;;;;;7375014;19;20913;-47
2022/09/18 08:12:04;;;;;;;2.40;1.40;;;13.20;99.90;;;;;;7370012;19;20414;-46
2022/09/18 08:14:55;;;;;;;3.23;1.53;;;13.30;99.90;;;;;;7368457;19;20733;-47
2022/09/18 08:17:28;;;;;;;3.63;1.37;;;13.20;99.90;;;;;;7379919;19;20402;-47
2022/09/18 08:20:08;;;;;;;2.67;1.20;;;13.30;99.90;;;;;;7381388;19;20372;-48
2022/09/18 08:22:50;;;;;;;3.40;1.53;;;13.20;99.90;;;;;;7371643;19;20372;-47
2022/09/18 08:25:22;;;;;;;1.20;1.07;;;13.20;99.90;;;;;;7366282;19;20827;-48
2022/09/18 08:27:55;;;;;;;1.17;1.00;;;13.00;99.90;;;;;;7365986;19;20368;-50
2022/09/18 08:30:35;;;;;;;1.50;1.17;;;13.00;99.90;;;;;;7360905;19;20379;-48
2022/09/18 08:33:09;;;;;;;4.00;1.60;;;13.00;99.90;;;;;;7367164;19;20963;-48
2022/09/18 08:35:39;;;;;;;3.50;1.50;;;13.00;99.90;;;;;;7366899;19;20935;-48
2022/09/18 08:38:29;;;;;;;3.33;1.50;;;13.00;99.90;;;;;;7370129;19;20420;-48
2022/09/18 08:41:39;;;;;;;4.70;1.60;;;13.00;99.90;;;;;;7361586;19;20444;-48
2022/09/18 08:44:16;;;;;;;5.13;1.50;;;13.00;99.90;;;;;;7364836;19;21095;-48
2022/09/18 08:46:52;;;;;;;1.30;1.20;;;13.10;99.90;;;;;;7376116;19;20384;-47
2022/09/18 08:49:27;;;;;;;1.30;1.17;;;13.20;99.90;;;;;;7369476;19;20858;-47
2022/09/18 08:52:05;;;;;;;5.93;1.57;;;13.30;99.90;;;;;;7377004;19;20371;-47
2022/09/18 08:54:47;;;;;;;2.47;1.20;;;13.50;99.90;;;;;;7371325;19;20937;-47
2022/09/18 08:57:46;;;;;;;3.40;1.73;;;13.70;99.90;;;;;;7375303;19;20391;-48
2022/09/18 09:00:24;;;;;;;3.40;1.80;;;13.80;99.90;;;;;;7374869;19;20379;-48
2022/09/18 09:03:25;;;;;;;2.13;1.60;;;13.90;99.90;;;;;;7373641;19;20372;-48
2022/09/18 09:06:01;;;;;;;1.57;1.30;;;14.00;99.90;;;;;;7377566;19;20367;-48
2022/09/18 09:08:46;;;;;;;4.13;1.50;;;14.00;99.90;;;;;;7361851;19;20709;-48
2022/09/18 09:11:24;;;;;;;3.17;1.70;;;14.00;99.90;;;;;;7372957;19;21456;-48
2022/09/18 09:14:20;;;;;;;2.60;1.50;;;13.90;99.90;;;;;;7367182;19;20372;-48
2022/09/18 09:16:57;;;;;;;2.97;1.70;;;13.90;99.90;;;;;;7368702;19;21083;-48
2022/09/18 09:19:31;;;;;;;5.03;1.67;;;13.90;99.90;;;;;;7361080;19;20371;-47
2022/09/18 09:22:07;;;;;;;3.10;1.50;;;13.80;99.90;;;;;;7363009;19;20401;-48
2022/09/18 09:24:47;;;;;;;2.80;1.40;;;13.90;99.90;;;;;;7366131;19;20359;-47
2022/09/18 09:27:39;;;;;;;2.07;1.40;;;13.90;99.90;;;;;;7368418;19;20431;-47
2022/09/18 09:30:50;;;;;;;3.43;1.47;;;13.90;99.90;;;;;;7357855;19;20395;-48
2022/09/18 09:34:02;;;;;;;1.83;1.50;;;14.00;99.90;;;;;;7369793;19;20384;-47
2022/09/18 09:36:57;;;;;;;5.10;1.90;;;14.20;99.90;;;;;;7378331;19;20946;-47
2022/09/18 09:39:35;;;;;;;1.90;1.43;;;14.20;99.80;;;;;;7377699;19;20368;-47
2022/09/18 09:42:16;;;;;;;1.70;1.30;;;14.10;99.90;;;;;;7376120;19;20383;-48
2022/09/18 09:44:54;;;;;;;3.53;1.47;;;14.00;99.70;;;;;;7378416;19;20455;-47
2022/09/18 09:47:35;;;;;;;3.03;1.67;;;13.90;99.90;;;;;;7384909;19;20384;-48
2022/09/18 09:50:21;;;;;;;1.83;1.30;;;14.00;99.10;;;;;;7384922;19;20379;-47
2022/09/18 09:53:03;;;;;;;3.10;1.20;;;14.20;98.50;;;;;;7385735;19;20395;-48
2022/09/18 09:55:39;;;;;;;4.10;1.30;;;14.30;97.60;;;;;;7383081;19;20378;-47
2022/09/18 09:58:19;;;;;;;2.70;1.30;;;14.30;96.70;;;;;;7386408;19;20375;-48
2022/09/18 10:00:57;;;;;;;2.40;1.20;;;14.50;95.40;;;;;;7383607;19;20432;-47
2022/09/18 10:03:35;;;;;;;2.17;1.57;;;14.60;94.60;;;;;;7385862;19;20378;-47
2022/09/18 10:06:20;;;;;;;2.90;1.20;;;14.70;92.70;;;;;;7384660;19;20388;-47
2022/09/18 10:08:56;;;;;;;2.10;1.53;;;14.90;91.40;;;;;;7384211;19;20392;-47
2022/09/18 10:11:28;;;;;;;1.90;1.10;;;15.30;90.60;;;;;;7382461;19;20372;-47
2022/09/18 10:14:05;;;;;;;3.50;1.13;;;15.60;89.60;;;;;;7386007;19;20792;-47
2022/09/18 10:16:38;;;;;;;3.67;1.40;;;16.10;84.10;;;;;;7384182;19;20399;-47
2022/09/18 10:19:15;;;;;;;2.47;1.20;;;16.30;81.70;;;;;;7383104;19;20368;-47
2022/09/18 10:21:49;;;;;;;3.47;1.20;;;16.50;79.20;;;;;;7383227;19;20380;-48
2022/09/18 10:24:27;;;;;;;4.27;1.50;;;16.30;79.60;;;;;;7383633;19;20364;-47
2022/09/18 10:27:05;;;;;;;2.00;1.00;;;16.30;78.90;;;;;;7385613;19;20364;-47
2022/09/18 10:29:34;;;;;;;2.70;1.43;;;16.10;79.70;;;;;;7385373;19;20372;-47
2022/09/18 10:32:05;;;;;;;3.63;1.70;;;16.10;79.70;;;;;;7384390;19;20368;-48
2022/09/18 10:34:42;;;;;;;4.97;1.90;;;16.60;78.80;;;;;;7383165;19;20920;-48
2022/09/18 10:37:38;;;;;;;3.97;1.60;;;17.10;73.30;;;;;;7386623;19;20720;-47
2022/09/18 10:40:32;;;;;;;1.57;1.07;;;17.70;71.50;;;;;;7382968;19;20372;-48
2022/09/18 10:43:03;;;;;;;2.80;1.07;;;18.20;67.30;;;;;;7384377;19;20447;-48
2022/09/18 10:45:40;;;;;;;3.03;1.33;;;18.40;64.40;;;;;;7385820;19;20374;-48
2022/09/18 10:48:25;;;;;;;0.90;0.70;;;18.30;62.10;;;;;;7384681;19;20380;-47
2022/09/18 10:50:55;;;;;;;2.57;1.57;;;17.90;61.00;;;;;;7384107;19;20376;-48
2022/09/18 10:53:37;;;;;;;4.03;0.70;;;17.70;62.20;;;;;;7384759;19;20364;-48
2022/09/18 10:56:23;;;;;;;1.33;1.10;;;17.90;61.60;;;;;;7382467;19;20380;-47
2022/09/18 10:58:56;;;;;;;2.47;1.10;;;18.70;60.20;;;;;;7382751;19;20380;-48
2022/09/18 11:01:26;;;;;;;2.20;0.80;;;19.60;56.70;;;;;;7381583;19;20449;-48
2022/09/18 11:04:03;;;;;;;2.00;1.13;;;20.30;55.80;;;;;;7384719;19;20480;-48
2022/09/18 11:06:38;;;;;;;2.43;1.50;;;20.90;54.20;;;;;;7385296;19;20405;-48
2022/09/18 11:09:32;;;;;;;2.20;0.73;;;21.50;52.20;;;;;;7380623;19;20384;-48
2022/09/18 11:12:03;;;;;;;3.87;0.80;;;21.40;51.10;;;;;;7384220;19;20368;-48
2022/09/18 11:14:42;;;;;;;2.80;0.97;;;21.10;50.50;;;;;;7383818;19;21418;-48
2022/09/18 11:17:26;;;;;;;1.40;0.77;;;21.00;50.10;;;;;;7380333;19;20386;-48
2022/09/18 11:20:00;;;;;;;2.40;0.83;;;21.30;49.10;;;;;;7381349;19;20388;-48
2022/09/18 11:22:46;;;;;;;1.87;0.80;;;21.30;49.00;;;;;;7382141;19;20921;-48
2022/09/18 11:25:47;;;;;;;3.53;0.90;;;21.40;48.00;;;;;;7381822;19;20404;-48
2022/09/18 11:28:28;;;;;;;1.93;1.00;;;21.00;48.30;;;;;;7382677;19;20402;-48
2022/09/18 11:31:02;;;;;;;1.50;1.07;;;21.00;48.60;;;;;;7384219;19;20490;-49
2022/09/18 11:33:38;;;;;;;1.50;0.70;;;21.90;48.50;;;;;;7383625;19;20387;-48
2022/09/18 11:36:11;;;;;;;1.43;0.87;;;22.90;45.50;;;;;;7382181;19;20773;-48
2022/09/18 11:38:43;;;;;;;1.07;0.53;;;22.70;45.20;;;;;;7382149;19;20372;-49
2022/09/18 11:41:24;;;;;;;3.23;1.17;;;22.70;46.00;;;;;;7381119;19;20376;-48
2022/09/18 11:44:03;;;;;;;2.00;0.70;;;23.60;44.50;;;;;;7383448;19;20379;-48
2022/09/18 11:46:46;;;;;;;1.33;0.67;;;23.40;43.50;;;;;;7384523;19;20383;-48
2022/09/18 11:49:21;;;;;;;3.17;0.90;;;22.50;44.70;;;;;;7384326;19;20914;-50
2022/09/18 11:51:57;;;;;;;2.10;1.07;;;22.10;45.60;;;;;;7382451;19;20372;-48
2022/09/18 11:54:40;;;;;;;1.40;0.70;;;21.60;45.70;;;;;;7381701;19;20388;-48
2022/09/18 11:57:18;;;;;;;2.03;0.70;;;21.70;45.80;;;;;;7381036;19;20399;-49
2022/09/18 11:59:56;;;;;;;4.03;0.83;;;21.60;45.90;;;;;;7383401;19;20384;-48
2022/09/18 12:02:35;;;;;;;1.80;0.90;;;21.90;44.90;;;;;;7376531;19;20436;-48
2022/09/18 12:05:17;;;;;;;2.10;0.80;;;21.70;44.60;;;;;;7382209;19;20379;-48
2022/09/18 12:07:58;;;;;;;2.57;1.00;;;21.30;45.00;;;;;;7381351;19;20387;-48
2022/09/18 12:10:39;;;;;;;3.10;0.77;;;21.20;45.30;;;;;;7374993;19;20396;-48
2022/09/18 12:13:26;;;;;;;0.90;0.60;;;21.30;44.50;;;;;;7383140;19;20467;-49
2022/09/18 12:16:03;;;;;;;2.90;0.90;;;21.80;44.30;;;;;;7379340;19;20364;-49
2022/09/18 12:18:41;;;;;;;1.10;0.57;;;22.60;43.10;;;;;;7381623;19;20364;-49
2022/09/18 12:21:16;;;;;;;3.37;0.83;;;23.20;42.50;;;;;;7376750;19;21056;-49
2022/09/18 12:23:46;;;;;;;2.27;0.93;;;23.20;42.90;;;;;;7381058;19;20384;-48
2022/09/18 12:26:24;;;;;;;3.70;1.10;;;22.90;42.70;;;;;;7379614;19;20970;-48
2022/09/18 12:29:18;;;;;;;1.60;1.07;;;22.30;43.60;;;;;;7381476;19;20426;-48
2022/09/18 12:31:58;;;;;;;2.50;0.90;;;21.60;44.30;;;;;;7380535;19;20421;-48
2022/09/18 12:34:33;;;;;;;1.50;0.80;;;21.10;44.90;;;;;;7381021;19;20364;-48
2022/09/18 12:37:13;;;;;;;1.47;0.80;;;20.70;45.50;;;;;;7380996;19;20391;-49
2022/09/18 12:40:08;;;;;;;2.13;0.70;;;20.40;45.20;;;;;;7379188;19;20376;-48
2022/09/18 12:42:48;;;;;;;1.10;0.73;;;20.20;44.70;;;;;;7378595;19;20376;-48
2022/09/18 12:45:47;;;;;;;2.03;1.00;;;19.80;44.90;;;;;;7383451;19;20724;-48
2022/09/18 12:48:35;;;;;;;1.40;0.80;;;20.00;45.30;;;;;;7381328;19;20391;-48
2022/09/18 12:51:19;;;;;;;2.00;0.60;;;20.20;44.70;;;;;;7382382;19;20910;-48
2022/09/18 12:53:59;;;;;;;4.00;0.90;;;20.40;45.10;;;;;;7377553;19;20388;-48
2022/09/18 12:56:51;;;;;;;1.10;0.60;;;20.90;44.80;;;;;;7379360;19;20451;-48
2022/09/18 12:59:42;;;;;;;1.50;0.90;;;22.00;43.60;;;;;;7379466;19;20372;-49
2022/09/18 13:02:24;;;;;;;1.90;0.73;;;22.30;42.20;;;;;;7377213;19;20834;-48
2022/09/18 13:05:04;;;;;;;2.93;1.93;;;21.90;42.20;;;;;;7381112;19;20391;-48
2022/09/18 13:07:37;;;;;;;2.93;1.03;;;21.70;42.90;;;;;;7379729;19;20835;-49
2022/09/18 13:10:13;;;;;;;3.57;1.13;;;21.20;43.10;;;;;;7378405;19;20376;-48
2022/09/18 13:12:54;;;;;;;1.50;0.80;;;20.60;44.10;;;;;;7380776;19;20371;-48
2022/09/18 13:15:27;;;;;;;2.43;0.63;;;20.00;45.60;;;;;;7379985;19;20385;-48
2022/09/18 13:18:08;;;;;;;1.23;0.80;;;19.80;46.30;;;;;;7356091;19;20431;-48
2022/09/18 13:20:44;;;;;;;1.73;0.80;;;19.50;46.30;;;;;;7380200;19;20408;-48
2022/09/18 13:23:19;;;;;;;1.50;0.90;;;19.20;46.40;;;;;;7387230;19;21496;-48
2022/09/18 13:25:50;;;;;;;2.00;0.90;;;19.00;47.20;;;;;;7384205;19;20469;-48
2022/09/18 13:28:22;;;;;;;2.17;1.00;;;19.00;47.90;;;;;;7389822;19;20476;-48
2022/09/18 13:31:29;;;;;;;2.10;0.90;;;19.00;47.50;;;;;;7387146;19;20609;-48
2022/09/18 13:34:03;;;;;;;2.50;0.93;;;18.90;46.40;;;;;;7389640;19;20376;-48
2022/09/18 13:36:37;;;;;;;1.43;0.90;;;18.70;47.50;;;;;;7388336;19;20390;-48
2022/09/18 13:39:17;;;;;;;1.00;0.77;;;18.70;47.80;;;;;;7374302;19;20415;-48